createdAt,value
2022-12-17T08:48:27.606Z,99354.97
2022-12-17T08:51:13.758Z,99354.38
2022-12-17T08:53:59.555Z,99352.97
2022-12-17T08:56:45.883Z,99354.56
2022-12-17T08:59:31.622Z,99355.97
2022-12-17T09:02:17.606Z,99358.16
2022-12-17T09:05:03.461Z,99357.25
2022-12-17T09:07:49.195Z,99354.31
2022-12-17T09:10:55.225Z,99354.41
2022-12-17T09:13:45.899Z,99353.09
2022-12-17T09:16:33.508Z,99367.09
2022-12-17T09:19:19.374Z,99365.56
2022-12-17T09:22:05.292Z,99357.16
2022-12-17T09:24:55.546Z,99367.50
2022-12-17T09:27:41.377Z,99368.63
2022-12-17T09:30:28.752Z,99364.81
2022-12-17T09:33:14.843Z,99368.03
2022-12-17T09:36:00.971Z,99362.88
2022-12-17T09:38:46.795Z,99374.91
2022-12-17T09:42:31.940Z,99375.41
2022-12-17T09:45:46.788Z,99376.53
2022-12-17T09:49:24.231Z,99372.72
2022-12-17T09:52:10.126Z,99372.97
2022-12-17T09:55:08.556Z,99379.53
2022-12-17T09:57:56.405Z,99375.16
2022-12-17T10:00:47.730Z,99383.03
2022-12-17T10:03:41.713Z,99370.00
2022-12-17T10:06:41.375Z,99366.00
2022-12-17T10:09:37.433Z,99368.16
2022-12-17T10:12:39.446Z,99369.53
2022-12-17T10:15:31.686Z,99363.56
2022-12-17T10:18:25.243Z,99370.91
2022-12-17T10:21:24.315Z,99358.16
2022-12-17T10:24:14.042Z,99367.09
2022-12-17T10:27:08.500Z,99357.31
2022-12-17T10:29:54.367Z,99366.53
2022-12-17T10:32:46.443Z,99367.56
2022-12-17T10:35:56.421Z,99372.66
2022-12-17T10:38:50.332Z,99366.97
2022-12-17T10:41:53.160Z,99370.22
2022-12-17T10:44:50.154Z,99375.25
2022-12-17T10:47:46.058Z,99367.72
2022-12-17T10:50:42.607Z,99369.38
2022-12-17T10:53:41.434Z,99373.78
2022-12-17T10:56:43.758Z,99367.81
2022-12-17T10:59:52.279Z,99362.53
2022-12-17T11:02:48.952Z,99356.78
2022-12-17T11:05:49.154Z,99353.91
2022-12-17T11:08:36.406Z,99350.06
2022-12-17T11:11:30.276Z,99349.38
2022-12-17T11:14:19.900Z,99340.66
2022-12-17T11:17:23.499Z,99354.78
2022-12-17T11:20:24.362Z,99347.94
2022-12-17T11:23:18.879Z,99346.94
2022-12-17T11:26:35.766Z,99366.34
2022-12-17T11:29:21.619Z,99351.13
2022-12-17T11:32:50.239Z,99350.53
2022-12-17T11:36:32.421Z,99345.00
2022-12-17T11:39:54.533Z,99349.47
2022-12-17T11:43:00.752Z,99338.63
2022-12-17T11:46:49.895Z,99352.00
2022-12-17T11:50:33.467Z,99351.41
2022-12-17T11:54:11.703Z,99356.28
2022-12-17T11:57:06.468Z,99357.91
2022-12-17T12:00:35.511Z,99349.78
2022-12-17T12:04:44.854Z,99359.88
2022-12-17T12:08:09.176Z,99361.16
2022-12-17T12:11:49.053Z,99355.41
2022-12-17T12:15:55.759Z,99358.88
2022-12-17T12:19:06.091Z,99348.50
2022-12-17T12:22:30.613Z,99354.44
2022-12-17T12:26:15.662Z,99348.03
2022-12-17T12:29:51.658Z,99360.81
2022-12-17T12:33:09.776Z,99362.81
2022-12-17T12:35:57.107Z,99362.47
2022-12-17T12:38:54.199Z,99361.13
2022-12-17T12:42:42.395Z,99361.31
2022-12-17T12:46:24.595Z,99350.31
2022-12-17T12:50:16.704Z,99357.97
2022-12-17T12:53:02.761Z,99346.22
2022-12-17T12:56:01.164Z,99349.91
2022-12-17T12:59:13.128Z,99351.91
2022-12-17T13:01:59.263Z,99348.19
2022-12-17T13:04:55.361Z,99343.66
2022-12-17T13:07:29.773Z,99348.44
2022-12-17T13:09:59.261Z,99354.03
2022-12-17T13:12:47.554Z,99351.34
2022-12-17T13:15:40.296Z,99357.06
2022-12-17T13:18:40.940Z,99354.25
2022-12-17T13:21:17.391Z,99343.44
2022-12-17T13:23:44.863Z,99354.22
2022-12-17T13:26:24.230Z,99354.31
2022-12-17T13:28:58.108Z,99357.00
2022-12-17T13:32:28.639Z,99367.38
2022-12-17T13:35:34.536Z,99352.47
2022-12-17T13:38:47.008Z,99356.00
2022-12-17T13:41:28.985Z,99355.69
2022-12-17T13:44:03.904Z,99361.69
2022-12-17T13:46:49.020Z,99358.97
2022-12-17T13:49:31.660Z,99359.75
2022-12-17T13:52:21.959Z,99370.88
2022-12-17T13:54:49.247Z,99371.19
2022-12-17T13:57:26.058Z,99373.84
2022-12-17T14:00:02.407Z,99366.56
2022-12-17T14:02:39.053Z,99379.81
2022-12-17T14:05:38.215Z,99383.63
2022-12-17T14:08:06.318Z,99389.03
2022-12-17T14:10:34.048Z,99387.97
2022-12-17T14:13:15.847Z,99396.31
2022-12-17T14:15:52.841Z,99401.50
2022-12-17T14:18:21.607Z,99397.41
2022-12-17T14:20:53.386Z,99398.78
2022-12-17T14:23:33.267Z,99386.88
2022-12-17T14:26:00.976Z,99399.06
2022-12-17T14:28:37.443Z,99393.38
2022-12-17T14:31:29.679Z,99391.75
2022-12-17T14:34:11.842Z,99392.84
2022-12-17T14:36:43.078Z,99393.91
2022-12-17T14:39:33.084Z,99390.66
2022-12-17T14:42:25.351Z,99396.63
2022-12-17T14:45:06.919Z,99399.06
2022-12-17T14:47:37.657Z,99392.28
2022-12-17T14:50:35.964Z,99400.16
2022-12-17T14:53:27.596Z,99400.97
2022-12-17T14:55:59.465Z,99409.09
2022-12-17T14:58:28.124Z,99409.34
2022-12-17T15:01:13.489Z,99405.28
2022-12-17T15:03:46.619Z,99409.84
2022-12-17T15:06:19.635Z,99417.91
2022-12-17T15:08:50.389Z,99424.50
2022-12-17T15:11:22.735Z,99431.56
2022-12-17T15:13:54.656Z,99433.13
2022-12-17T15:16:23.721Z,99436.66
2022-12-17T15:18:51.025Z,99428.22
2022-12-17T15:21:19.644Z,99425.69
2022-12-17T15:23:48.099Z,99428.19
2022-12-17T15:26:15.448Z,99416.25
2022-12-17T15:28:43.880Z,99418.47
2022-12-17T15:31:15.275Z,99426.34
2022-12-17T15:33:43.039Z,99421.44
2022-12-17T15:36:12.709Z,99414.34
2022-12-17T15:38:40.745Z,99411.44
2022-12-17T15:41:26.809Z,99400.91
2022-12-17T15:43:54.105Z,99412.59
2022-12-17T15:46:21.463Z,99416.09
2022-12-17T15:48:50.730Z,99413.56
2022-12-17T15:51:20.968Z,99418.56
2022-12-17T15:53:48.628Z,99419.63
2022-12-17T15:56:24.156Z,99408.53
2022-12-17T15:58:51.913Z,99406.34
2022-12-17T16:01:20.575Z,99407.91
2022-12-17T16:03:48.044Z,99415.28
2022-12-17T16:06:15.357Z,99406.28
2022-12-17T16:08:42.615Z,99410.13
2022-12-17T16:11:13.196Z,99397.09
2022-12-17T16:13:40.680Z,99408.75
2022-12-17T16:16:08.888Z,99409.59
2022-12-17T16:18:38.676Z,99406.34
2022-12-17T16:21:08.950Z,99397.09
2022-12-17T16:23:37.131Z,99403.63
2022-12-17T16:26:09.104Z,99395.72
2022-12-17T16:28:37.915Z,99408.09
2022-12-17T16:31:13.195Z,99407.06
2022-12-17T16:33:44.385Z,99413.69
2022-12-17T16:36:19.616Z,99424.78
2022-12-17T16:38:52.608Z,99427.25
2022-12-17T16:41:22.282Z,99426.41
2022-12-17T16:43:49.864Z,99425.63
2022-12-17T16:46:39.109Z,99414.94
2022-12-17T16:49:20.874Z,99419.41
2022-12-17T16:51:53.188Z,99422.63
2022-12-17T16:54:27.070Z,99424.78
2022-12-17T16:56:55.225Z,99420.06
2022-12-17T16:59:23.618Z,99416.88
2022-12-17T17:01:53.133Z,99422.31
2022-12-17T17:04:23.208Z,99414.91
2022-12-17T17:06:57.098Z,99416.88
2022-12-17T17:09:25.675Z,99435.59
2022-12-17T17:11:58.647Z,99424.53
2022-12-17T17:14:27.149Z,99432.94
2022-12-17T17:16:54.520Z,99437.53
2022-12-17T17:19:21.834Z,99434.47
2022-12-17T17:21:54.712Z,99437.44
2022-12-17T17:24:25.381Z,99436.88
2022-12-17T17:26:55.554Z,99436.25
2022-12-17T17:29:23.318Z,99446.31
2022-12-17T17:32:09.868Z,99441.66
2022-12-17T17:34:39.913Z,99440.53
2022-12-17T17:37:07.686Z,99446.03
2022-12-17T17:39:35.107Z,99437.00
2022-12-17T17:42:02.891Z,99449.41
2022-12-17T17:44:30.155Z,99444.81
2022-12-17T17:46:57.529Z,99448.84
2022-12-17T17:49:25.204Z,99456.25
2022-12-17T17:52:08.848Z,99453.53
2022-12-17T17:54:39.341Z,99463.03
2022-12-17T17:57:06.993Z,99456.78
2022-12-17T17:59:34.625Z,99454.84
2022-12-17T18:02:03.637Z,99456.69
2022-12-17T18:04:32.443Z,99457.81
2022-12-17T18:07:24.075Z,99463.38
2022-12-17T18:09:46.976Z,99465.53
2022-12-17T18:12:32.903Z,99468.72
2022-12-17T18:15:17.230Z,99463.41
2022-12-17T18:17:51.566Z,99466.19
2022-12-17T18:20:19.379Z,99471.69
2022-12-17T18:22:47.166Z,99474.69
2022-12-17T18:25:16.932Z,99467.25
2022-12-17T18:27:44.888Z,99471.97
2022-12-17T18:30:13.594Z,99476.88
2022-12-17T18:32:40.926Z,99476.91
2022-12-17T18:35:09.384Z,99468.19
2022-12-17T18:37:37.073Z,99468.84
2022-12-17T18:40:07.324Z,99459.13
2022-12-17T18:42:54.011Z,99471.53
2022-12-17T18:45:22.255Z,99468.84
2022-12-17T18:47:51.309Z,99465.47
2022-12-17T18:50:18.617Z,99472.81
2022-12-17T18:52:45.891Z,99466.22
2022-12-17T18:55:13.196Z,99477.50
2022-12-17T18:57:40.871Z,99486.03
2022-12-17T19:00:10.006Z,99487.19
2022-12-17T19:02:38.487Z,99491.50
2022-12-17T19:05:06.177Z,99493.03
2022-12-17T19:07:33.505Z,99504.31
2022-12-17T19:10:00.790Z,99488.06
2022-12-17T19:12:28.161Z,99497.25
2022-12-17T19:14:55.868Z,99504.44
2022-12-17T19:17:23.173Z,99506.31
2022-12-17T19:19:50.459Z,99517.16
2022-12-17T19:22:18.375Z,99510.03
2022-12-17T19:24:45.895Z,99520.25
2022-12-17T19:27:13.178Z,99521.47
2022-12-17T19:29:44.941Z,99534.53
2022-12-17T19:32:14.967Z,99535.00
2022-12-17T19:34:42.229Z,99516.28
2022-12-17T19:37:09.502Z,99537.78
2022-12-17T19:39:36.770Z,99539.41
2022-12-17T19:42:04.184Z,99557.66
2022-12-17T19:44:31.524Z,99534.09
2022-12-17T19:46:58.817Z,99547.34
2022-12-17T19:49:26.110Z,99548.47
2022-12-17T19:51:53.425Z,99548.19
2022-12-17T19:54:20.709Z,99546.91
2022-12-17T19:56:47.990Z,99542.91
2022-12-17T19:59:15.351Z,99550.81
2022-12-17T20:01:46.466Z,99548.56
2022-12-17T20:04:16.422Z,99564.97
2022-12-17T20:06:45.256Z,99562.44
2022-12-17T20:09:14.139Z,99566.59
2022-12-17T20:11:41.530Z,99571.28
2022-12-17T20:14:23.812Z,99569.63
2022-12-17T20:16:59.685Z,99565.34
2022-12-17T20:19:31.339Z,99564.31
2022-12-17T20:22:04.693Z,99565.50
2022-12-17T20:24:32.601Z,99553.38
2022-12-17T20:27:01.487Z,99542.13
2022-12-17T20:29:29.661Z,99535.19
2022-12-17T20:31:57.254Z,99549.97
2022-12-17T20:34:25.424Z,99538.66
2022-12-17T20:36:54.323Z,99541.38
2022-12-17T20:39:27.309Z,99540.59
2022-12-17T20:41:57.116Z,99539.47
2022-12-17T20:44:24.727Z,99524.50
2022-12-17T20:46:52.071Z,99528.44
2022-12-17T20:49:19.381Z,99519.09
